<?xml version="1.0" encoding="UTF-8" standalone="no" ?><gpx xmlns="http://www.topografix.com/GPX/1/1" xmlns:gpxx="http://www.garmin.com/xmlschemas/GpxExtensions/v3" xmlns:wptx1="http://www.garmin.com/xmlschemas/WaypointExtension/v1" xmlns:gpxtpx="http://www.garmin.com/xmlschemas/TrackPointExtension/v1" creator="Dakota 20" version="1.1" xmlns:xsi="http://www.w3.org/2001/XMLSchema-instance" xsi:schemaLocation="http://www.topografix.com/GPX/1/1 http://www.topografix.com/GPX/1/1/gpx.xsd http://www.garmin.com/xmlschemas/GpxExtensions/v3 http://www8.garmin.com/xmlschemas/GpxExtensionsv3.xsd http://www.garmin.com/xmlschemas/WaypointExtension/v1 http://www8.garmin.com/xmlschemas/WaypointExtensionv1.xsd http://www.garmin.com/xmlschemas/TrackPointExtension/v1 http://www.garmin.com/xmlschemas/TrackPointExtensionv1.xsd"><metadata><link href="http://www.garmin.com"><text>Garmin International</text></link><time>2015-11-25T14:36:29Z</time></metadata><trk><name>Current Track: 25 NOV 2015 10:08</name><extensions><gpxx:TrackExtension><gpxx:DisplayColor>Cyan</gpxx:DisplayColor></gpxx:TrackExtension></extensions><trkseg><trkpt lat="52.1876055188" lon="-2.1117303148"><ele>53.49</ele><time>2015-11-25T10:08:17Z</time></trkpt><trkpt lat="52.1875990648" lon="-2.1117792651"><ele>53.49</ele><time>2015-11-25T10:08:38Z</time></trkpt><trkpt lat="52.1875832230" lon="-2.1118545346"><ele>53.01</ele><time>2015-11-25T10:08:58Z</time></trkpt><trkpt lat="52.1876232047" lon="-2.1120072529"><ele>53.97</ele><time>2015-11-25T10:09:17Z</time></trkpt><trkpt lat="52.1876222827" lon="-2.1120079234"><ele>53.49</ele><time>2015-11-25T10:09:21Z</time></trkpt><trkpt lat="52.1876508649" lon="-2.1120494977"><ele>53.01</ele><time>2015-11-25T10:09:24Z</time></trkpt><trkpt lat="52.1876194328" lon="-2.1121826861"><ele>53.01</ele><time>2015-11-25T10:09:37Z</time></trkpt><trkpt lat="52.1875534672" lon="-2.1124573611"><ele>52.53</ele><time>2015-11-25T10:09:54Z</time></trkpt><trkpt lat="52.1875411458" lon="-2.1124923974"><ele>52.53</ele><time>2015-11-25T10:09:58Z</time></trkpt><trkpt lat="52.1875078697" lon="-2.1126949880"><ele>52.53</ele><time>2015-11-25T10:10:11Z</time></trkpt><trkpt lat="52.1875082888" lon="-2.1127598640"><ele>52.53</ele><time>2015-11-25T10:10:26Z</time></trkpt><trkpt lat="52.1875071991" lon="-2.1127496380"><ele>51.57</ele><time>2015-11-25T10:10:45Z</time></trkpt><trkpt lat="52.1875408106" lon="-2.1125532500"><ele>53.01</ele><time>2015-11-25T10:11:06Z</time></trkpt><trkpt lat="52.1876042616" lon="-2.1122176386"><ele>53.01</ele><time>2015-11-25T10:11:26Z</time></trkpt><trkpt lat="52.1876670420" lon="-2.1119938418"><ele>52.53</ele><time>2015-11-25T10:11:49Z</time></trkpt><trkpt lat="52.1876277309" lon="-2.1119002998"><ele>52.53</ele><time>2015-11-25T10:12:05Z</time></trkpt><trkpt lat="52.1875862405" lon="-2.1116964519"><ele>52.05</ele><time>2015-11-25T10:12:23Z</time></trkpt><trkpt lat="52.1876676288" lon="-2.1114256326"><ele>52.53</ele><time>2015-11-25T10:12:42Z</time></trkpt><trkpt lat="52.1877169143" lon="-2.1112306695"><ele>52.53</ele><time>2015-11-25T10:13:00Z</time></trkpt><trkpt lat="52.1877494361" lon="-2.1112165041"><ele>52.53</ele><time>2015-11-25T10:13:20Z</time></trkpt><trkpt lat="52.1876957919" lon="-2.1111858264"><ele>51.57</ele><time>2015-11-25T10:13:27Z</time></trkpt><trkpt lat="52.1874767728" lon="-2.1109942161"><ele>50.13</ele><time>2015-11-25T10:13:50Z</time></trkpt><trkpt lat="52.1873184387" lon="-2.1108886041"><ele>48.68</ele><time>2015-11-25T10:14:04Z</time></trkpt><trkpt lat="52.1871257387" lon="-2.1107600257"><ele>47.72</ele><time>2015-11-25T10:14:22Z</time></trkpt><trkpt lat="52.1869712602" lon="-2.1106859297"><ele>46.28</ele><time>2015-11-25T10:14:39Z</time></trkpt><trkpt lat="52.1867387462" lon="-2.1105133463"><ele>45.32</ele><time>2015-11-25T10:15:01Z</time></trkpt><trkpt lat="52.1865545958" lon="-2.1103928145"><ele>43.88</ele><time>2015-11-25T10:15:20Z</time></trkpt><trkpt lat="52.1863639913" lon="-2.1102225780"><ele>43.88</ele><time>2015-11-25T10:15:40Z</time></trkpt><trkpt lat="52.1861780807" lon="-2.1100582927"><ele>43.40</ele><time>2015-11-25T10:16:02Z</time></trkpt><trkpt lat="52.1859470755" lon="-2.1098876372"><ele>42.44</ele><time>2015-11-25T10:16:26Z</time></trkpt><trkpt lat="52.1857319120" lon="-2.1097642556"><ele>41.47</ele><time>2015-11-25T10:16:48Z</time></trkpt><trkpt lat="52.1856217738" lon="-2.1097595617"><ele>40.99</ele><time>2015-11-25T10:17:06Z</time></trkpt><trkpt lat="52.1854981408" lon="-2.1097793430"><ele>39.07</ele><time>2015-11-25T10:17:24Z</time></trkpt><trkpt lat="52.1852490306" lon="-2.1095413808"><ele>36.67</ele><time>2015-11-25T10:17:46Z</time></trkpt><trkpt lat="52.1851079632" lon="-2.1094073541"><ele>34.26</ele><time>2015-11-25T10:18:06Z</time></trkpt><trkpt lat="52.1848858427" lon="-2.1092900075"><ele>32.82</ele><time>2015-11-25T10:18:25Z</time></trkpt><trkpt lat="52.1848143451" lon="-2.1092272270"><ele>32.34</ele><time>2015-11-25T10:18:44Z</time></trkpt><trkpt lat="52.1848087292" lon="-2.1091432404"><ele>32.34</ele><time>2015-11-25T10:18:58Z</time></trkpt><trkpt lat="52.1847992577" lon="-2.1091087908"><ele>32.34</ele><time>2015-11-25T10:19:00Z</time></trkpt><trkpt lat="52.1847638860" lon="-2.1090564039"><ele>32.34</ele><time>2015-11-25T10:19:21Z</time></trkpt><trkpt lat="52.1847619582" lon="-2.1090560686"><ele>28.02</ele><time>2015-11-25T10:19:30Z</time></trkpt><trkpt lat="52.1847618744" lon="-2.1090559009"><ele>31.38</ele><time>2015-11-25T10:19:32Z</time></trkpt><trkpt lat="52.1847395785" lon="-2.1090691444"><ele>31.86</ele><time>2015-11-25T10:19:37Z</time></trkpt><trkpt lat="52.1847021952" lon="-2.1090399753"><ele>31.86</ele><time>2015-11-25T10:19:51Z</time></trkpt><trkpt lat="52.1846840065" lon="-2.1090232953"><ele>31.38</ele><time>2015-11-25T10:20:10Z</time></trkpt><trkpt lat="52.1845902968" lon="-2.1090357006"><ele>31.38</ele><time>2015-11-25T10:20:23Z</time></trkpt><trkpt lat="52.1843902208" lon="-2.1088901069"><ele>32.82</ele><time>2015-11-25T10:20:41Z</time></trkpt><trkpt lat="52.1843077429" lon="-2.1088775340"><ele>33.30</ele><time>2015-11-25T10:20:49Z</time></trkpt><trkpt lat="52.1841079183" lon="-2.1087981574"><ele>35.23</ele><time>2015-11-25T10:21:09Z</time></trkpt><trkpt lat="52.1839290485" lon="-2.1087095607"><ele>36.67</ele><time>2015-11-25T10:21:30Z</time></trkpt><trkpt lat="52.1838808525" lon="-2.1086810622"><ele>36.19</ele><time>2015-11-25T10:21:37Z</time></trkpt><trkpt lat="52.1838361770" lon="-2.1086518094"><ele>36.67</ele><time>2015-11-25T10:21:43Z</time></trkpt><trkpt lat="52.1837376058" lon="-2.1086081397"><ele>37.63</ele><time>2015-11-25T10:22:01Z</time></trkpt><trkpt lat="52.1836614143" lon="-2.1085580997"><ele>37.63</ele><time>2015-11-25T10:22:15Z</time></trkpt><trkpt lat="52.1835014876" lon="-2.1085231472"><ele>37.63</ele><time>2015-11-25T10:22:34Z</time></trkpt><trkpt lat="52.1832960472" lon="-2.1083798166"><ele>38.11</ele><time>2015-11-25T10:22:56Z</time></trkpt><trkpt lat="52.1832043491" lon="-2.1083252504"><ele>38.11</ele><time>2015-11-25T10:23:16Z</time></trkpt><trkpt lat="52.1831538063" lon="-2.1082773898"><ele>38.59</ele><time>2015-11-25T10:23:31Z</time></trkpt><trkpt lat="52.1830699034" lon="-2.1082210634"><ele>38.11</ele><time>2015-11-25T10:23:48Z</time></trkpt><trkpt lat="52.1829393134" lon="-2.1080992743"><ele>38.11</ele><time>2015-11-25T10:24:05Z</time></trkpt><trkpt lat="52.1827846672" lon="-2.1080135275"><ele>38.59</ele><time>2015-11-25T10:24:23Z</time></trkpt><trkpt lat="52.1826261654" lon="-2.1079319715"><ele>38.59</ele><time>2015-11-25T10:24:40Z</time></trkpt><trkpt lat="52.1824627183" lon="-2.1078921575"><ele>39.07</ele><time>2015-11-25T10:24:57Z</time></trkpt><trkpt lat="52.1822942421" lon="-2.1079017129"><ele>39.07</ele><time>2015-11-25T10:25:15Z</time></trkpt><trkpt lat="52.1821106784" lon="-2.1078930795"><ele>40.03</ele><time>2015-11-25T10:25:35Z</time></trkpt><trkpt lat="52.1819246840" lon="-2.1079385094"><ele>40.03</ele><time>2015-11-25T10:25:55Z</time></trkpt><trkpt lat="52.1816942655" lon="-2.1079553571"><ele>40.51</ele><time>2015-11-25T10:26:19Z</time></trkpt><trkpt lat="52.1814783476" lon="-2.1079560276"><ele>40.51</ele><time>2015-11-25T10:26:40Z</time></trkpt><trkpt lat="52.1813038364" lon="-2.1079576202"><ele>40.51</ele><time>2015-11-25T10:27:00Z</time></trkpt><trkpt lat="52.1812236216" lon="-2.1079380903"><ele>40.03</ele><time>2015-11-25T10:27:19Z</time></trkpt><trkpt lat="52.1812213585" lon="-2.1079288702"><ele>40.03</ele><time>2015-11-25T10:27:50Z</time></trkpt><trkpt lat="52.1812065225" lon="-2.1079506632"><ele>40.51</ele><time>2015-11-25T10:28:10Z</time></trkpt><trkpt lat="52.1812106296" lon="-2.1079453826"><ele>40.03</ele><time>2015-11-25T10:28:28Z</time></trkpt><trkpt lat="52.1811797842" lon="-2.1079379227"><ele>40.03</ele><time>2015-11-25T10:28:44Z</time></trkpt><trkpt lat="52.1810803749" lon="-2.1080255136"><ele>40.03</ele><time>2015-11-25T10:29:03Z</time></trkpt><trkpt lat="52.1810186002" lon="-2.1079743002"><ele>39.07</ele><time>2015-11-25T10:29:21Z</time></trkpt><trkpt lat="52.1809987351" lon="-2.1079301275"><ele>39.07</ele><time>2015-11-25T10:29:43Z</time></trkpt><trkpt lat="52.1808300074" lon="-2.1074586455"><ele>38.59</ele><time>2015-11-25T10:30:05Z</time></trkpt><trkpt lat="52.1807081345" lon="-2.1070705634"><ele>37.63</ele><time>2015-11-25T10:30:27Z</time></trkpt><trkpt lat="52.1805858426" lon="-2.1068234649"><ele>37.15</ele><time>2015-11-25T10:30:48Z</time></trkpt><trkpt lat="52.1804227307" lon="-2.1065107360"><ele>37.15</ele><time>2015-11-25T10:31:11Z</time></trkpt><trkpt lat="52.1803072281" lon="-2.1062492207"><ele>37.15</ele><time>2015-11-25T10:31:34Z</time></trkpt><trkpt lat="52.1801316272" lon="-2.1059880406"><ele>36.67</ele><time>2015-11-25T10:31:58Z</time></trkpt><trkpt lat="52.1799856145" lon="-2.1058292035"><ele>36.67</ele><time>2015-11-25T10:32:20Z</time></trkpt><trkpt lat="52.1798218321" lon="-2.1056521777"><ele>36.67</ele><time>2015-11-25T10:32:41Z</time></trkpt><trkpt lat="52.1796344966" lon="-2.1055427939"><ele>36.67</ele><time>2015-11-25T10:33:02Z</time></trkpt><trkpt lat="52.1794565488" lon="-2.1054519340"><ele>35.71</ele><time>2015-11-25T10:33:26Z</time></trkpt><trkpt lat="52.1792815346" lon="-2.1052538697"><ele>34.74</ele><time>2015-11-25T10:33:47Z</time></trkpt><trkpt lat="52.1791658644" lon="-2.1051487606"><ele>33.78</ele><time>2015-11-25T10:34:04Z</time></trkpt><trkpt lat="52.1789885033" lon="-2.1049121395"><ele>33.78</ele><time>2015-11-25T10:34:23Z</time></trkpt><trkpt lat="52.1788993198" lon="-2.1048477665"><ele>33.30</ele><time>2015-11-25T10:34:41Z</time></trkpt><trkpt lat="52.1788783651" lon="-2.1046396438"><ele>32.82</ele><time>2015-11-25T10:35:01Z</time></trkpt><trkpt lat="52.1788507048" lon="-2.1044776216"><ele>32.34</ele><time>2015-11-25T10:35:18Z</time></trkpt><trkpt lat="52.1787833143" lon="-2.1042691637"><ele>32.82</ele><time>2015-11-25T10:35:40Z</time></trkpt><trkpt lat="52.1786922030" lon="-2.1042104065"><ele>32.34</ele><time>2015-11-25T10:35:59Z</time></trkpt><trkpt lat="52.1786715835" lon="-2.1041746158"><ele>32.34</ele><time>2015-11-25T10:36:18Z</time></trkpt><trkpt lat="52.1785292588" lon="-2.1040032897"><ele>32.34</ele><time>2015-11-25T10:36:38Z</time></trkpt><trkpt lat="52.1783275902" lon="-2.1037216578"><ele>32.34</ele><time>2015-11-25T10:37:01Z</time></trkpt><trkpt lat="52.1781463735" lon="-2.1034480724"><ele>32.34</ele><time>2015-11-25T10:37:23Z</time></trkpt><trkpt lat="52.1779620554" lon="-2.1032048296"><ele>31.86</ele><time>2015-11-25T10:37:46Z</time></trkpt><trkpt lat="52.1777786594" lon="-2.1029989701"><ele>30.90</ele><time>2015-11-25T10:38:08Z</time></trkpt><trkpt lat="52.1776046511" lon="-2.1027912665"><ele>30.90</ele><time>2015-11-25T10:38:29Z</time></trkpt><trkpt lat="52.1774199139" lon="-2.1026522107"><ele>31.86</ele><time>2015-11-25T10:38:52Z</time></trkpt><trkpt lat="52.1772713028" lon="-2.1025084611"><ele>31.86</ele><time>2015-11-25T10:39:13Z</time></trkpt><trkpt lat="52.1772076003" lon="-2.1024761070"><ele>31.38</ele><time>2015-11-25T10:39:29Z</time></trkpt><trkpt lat="52.1771186683" lon="-2.1023934614"><ele>31.38</ele><time>2015-11-25T10:39:50Z</time></trkpt><trkpt lat="52.1769899223" lon="-2.1025355347"><ele>31.38</ele><time>2015-11-25T10:40:10Z</time></trkpt><trkpt lat="52.1768989787" lon="-2.1027036756"><ele>31.38</ele><time>2015-11-25T10:40:29Z</time></trkpt><trkpt lat="52.1769618429" lon="-2.1027212776"><ele>31.86</ele><time>2015-11-25T10:40:47Z</time></trkpt><trkpt lat="52.1769507788" lon="-2.1027071960"><ele>31.86</ele><time>2015-11-25T10:41:02Z</time></trkpt><trkpt lat="52.1769647766" lon="-2.1027147397"><ele>31.86</ele><time>2015-11-25T10:41:27Z</time></trkpt><trkpt lat="52.1769615915" lon="-2.1026994847"><ele>31.86</ele><time>2015-11-25T10:41:48Z</time></trkpt><trkpt lat="52.1769883297" lon="-2.1026413981"><ele>31.38</ele><time>2015-11-25T10:42:02Z</time></trkpt><trkpt lat="52.1769952867" lon="-2.1026022546"><ele>30.90</ele><time>2015-11-25T10:42:22Z</time></trkpt><trkpt lat="52.1770324185" lon="-2.1021591034"><ele>30.42</ele><time>2015-11-25T10:42:41Z</time></trkpt><trkpt lat="52.1770713106" lon="-2.1020050440"><ele>29.46</ele><time>2015-11-25T10:43:02Z</time></trkpt><trkpt lat="52.1770625096" lon="-2.1019139327"><ele>28.98</ele><time>2015-11-25T10:43:21Z</time></trkpt><trkpt lat="52.1770684607" lon="-2.1014342364"><ele>28.50</ele><time>2015-11-25T10:43:41Z</time></trkpt><trkpt lat="52.1770511940" lon="-2.1011039056"><ele>27.53</ele><time>2015-11-25T10:44:03Z</time></trkpt><trkpt lat="52.1770611685" lon="-2.1008764207"><ele>27.05</ele><time>2015-11-25T10:44:24Z</time></trkpt><trkpt lat="52.1770236176" lon="-2.1005045995"><ele>25.61</ele><time>2015-11-25T10:44:45Z</time></trkpt><trkpt lat="52.1769389603" lon="-2.1002006717"><ele>25.13</ele><time>2015-11-25T10:45:07Z</time></trkpt><trkpt lat="52.1768911835" lon="-2.0999447722"><ele>24.17</ele><time>2015-11-25T10:45:25Z</time></trkpt><trkpt lat="52.1768791974" lon="-2.0999088138"><ele>24.17</ele><time>2015-11-25T10:45:45Z</time></trkpt><trkpt lat="52.1768714022" lon="-2.0998174511"><ele>24.65</ele><time>2015-11-25T10:46:06Z</time></trkpt><trkpt lat="52.1768310852" lon="-2.0998421777"><ele>24.17</ele><time>2015-11-25T10:46:26Z</time></trkpt><trkpt lat="52.1767986473" lon="-2.0997519884"><ele>24.17</ele><time>2015-11-25T10:46:47Z</time></trkpt><trkpt lat="52.1767685562" lon="-2.0996037964"><ele>24.17</ele><time>2015-11-25T10:47:08Z</time></trkpt><trkpt lat="52.1767465957" lon="-2.0994488988"><ele>24.17</ele><time>2015-11-25T10:47:27Z</time></trkpt><trkpt lat="52.1767041832" lon="-2.0992821828"><ele>24.17</ele><time>2015-11-25T10:47:53Z</time></trkpt><trkpt lat="52.1766952146" lon="-2.0991804264"><ele>24.17</ele><time>2015-11-25T10:48:17Z</time></trkpt><trkpt lat="52.1766939573" lon="-2.0989404526"><ele>23.21</ele><time>2015-11-25T10:48:35Z</time></trkpt><trkpt lat="52.1766812168" lon="-2.0990085136"><ele>23.21</ele><time>2015-11-25T10:48:53Z</time></trkpt><trkpt lat="52.1766554844" lon="-2.0989917498"><ele>23.21</ele><time>2015-11-25T10:49:22Z</time></trkpt><trkpt lat="52.1766590048" lon="-2.0989728905"><ele>23.21</ele><time>2015-11-25T10:49:50Z</time></trkpt><trkpt lat="52.1766641177" lon="-2.0989821944"><ele>28.02</ele><time>2015-11-25T10:50:05Z</time></trkpt><trkpt lat="52.1766663808" lon="-2.0989929233"><ele>23.69</ele><time>2015-11-25T10:50:06Z</time></trkpt><trkpt lat="52.1766631119" lon="-2.0990095194"><ele>23.21</ele><time>2015-11-25T10:50:29Z</time></trkpt><trkpt lat="52.1766639501" lon="-2.0988942683"><ele>23.21</ele><time>2015-11-25T10:50:45Z</time></trkpt><trkpt lat="52.1766479407" lon="-2.0988742355"><ele>23.21</ele><time>2015-11-25T10:50:53Z</time></trkpt><trkpt lat="52.1766470186" lon="-2.0988783427"><ele>24.65</ele><time>2015-11-25T10:51:11Z</time></trkpt><trkpt lat="52.1766478568" lon="-2.0988887362"><ele>23.21</ele><time>2015-11-25T10:51:29Z</time></trkpt><trkpt lat="52.1766799595" lon="-2.0990474895"><ele>23.69</ele><time>2015-11-25T10:51:47Z</time></trkpt><trkpt lat="52.1766353678" lon="-2.0991968550"><ele>24.65</ele><time>2015-11-25T10:51:59Z</time></trkpt><trkpt lat="52.1764376387" lon="-2.0995539241"><ele>23.69</ele><time>2015-11-25T10:52:14Z</time></trkpt><trkpt lat="52.1763383970" lon="-2.0997852646"><ele>23.69</ele><time>2015-11-25T10:52:29Z</time></trkpt><trkpt lat="52.1762177814" lon="-2.1000021044"><ele>23.21</ele><time>2015-11-25T10:52:45Z</time></trkpt><trkpt lat="52.1761163604" lon="-2.1001922898"><ele>23.21</ele><time>2015-11-25T10:53:02Z</time></trkpt><trkpt lat="52.1760177054" lon="-2.1004108898"><ele>24.65</ele><time>2015-11-25T10:53:15Z</time></trkpt><trkpt lat="52.1760161128" lon="-2.1004433278"><ele>19.36</ele><time>2015-11-25T10:53:17Z</time></trkpt><trkpt lat="52.1760102455" lon="-2.1004583314"><ele>24.17</ele><time>2015-11-25T10:53:18Z</time></trkpt><trkpt lat="52.1759267617" lon="-2.1006509475"><ele>24.65</ele><time>2015-11-25T10:53:34Z</time></trkpt><trkpt lat="52.1758960839" lon="-2.1006936114"><ele>25.13</ele><time>2015-11-25T10:53:39Z</time></trkpt><trkpt lat="52.1758835111" lon="-2.1007498540"><ele>25.13</ele><time>2015-11-25T10:53:55Z</time></trkpt><trkpt lat="52.1758704353" lon="-2.1007853933"><ele>24.65</ele><time>2015-11-25T10:53:58Z</time></trkpt><trkpt lat="52.1757934056" lon="-2.1010441426"><ele>26.09</ele><time>2015-11-25T10:54:16Z</time></trkpt><trkpt lat="52.1757986024" lon="-2.1010661870"><ele>25.61</ele><time>2015-11-25T10:54:37Z</time></trkpt><trkpt lat="52.1757323015" lon="-2.1012363397"><ele>26.09</ele><time>2015-11-25T10:54:52Z</time></trkpt><trkpt lat="52.1757027134" lon="-2.1013833582"><ele>27.05</ele><time>2015-11-25T10:55:06Z</time></trkpt><trkpt lat="52.1756794117" lon="-2.1014181431"><ele>26.09</ele><time>2015-11-25T10:55:25Z</time></trkpt><trkpt lat="52.1756430343" lon="-2.1016181353"><ele>27.53</ele><time>2015-11-25T10:55:41Z</time></trkpt><trkpt lat="52.1755924076" lon="-2.1018325444"><ele>28.02</ele><time>2015-11-25T10:55:58Z</time></trkpt><trkpt lat="52.1755416971" lon="-2.1020671539"><ele>29.46</ele><time>2015-11-25T10:56:13Z</time></trkpt><trkpt lat="52.1755154617" lon="-2.1022699121"><ele>30.42</ele><time>2015-11-25T10:56:29Z</time></trkpt><trkpt lat="52.1754960157" lon="-2.1023604367"><ele>31.38</ele><time>2015-11-25T10:56:49Z</time></trkpt><trkpt lat="52.1754642483" lon="-2.1025544778"><ele>31.86</ele><time>2015-11-25T10:57:07Z</time></trkpt><trkpt lat="52.1753797587" lon="-2.1028305776"><ele>33.30</ele><time>2015-11-25T10:57:27Z</time></trkpt><trkpt lat="52.1753814351" lon="-2.1028486826"><ele>32.82</ele><time>2015-11-25T10:57:44Z</time></trkpt><trkpt lat="52.1753982827" lon="-2.1028566454"><ele>33.30</ele><time>2015-11-25T10:58:10Z</time></trkpt><trkpt lat="52.1753845364" lon="-2.1028191783"><ele>33.30</ele><time>2015-11-25T10:58:29Z</time></trkpt><trkpt lat="52.1753685270" lon="-2.1028185077"><ele>33.30</ele><time>2015-11-25T10:58:49Z</time></trkpt><trkpt lat="52.1753734723" lon="-2.1028318349"><ele>32.82</ele><time>2015-11-25T10:59:15Z</time></trkpt><trkpt lat="52.1753614023" lon="-2.1028302424"><ele>32.82</ele><time>2015-11-25T10:59:39Z</time></trkpt><trkpt lat="52.1753593069" lon="-2.1028386243"><ele>32.82</ele><time>2015-11-25T11:00:05Z</time></trkpt><trkpt lat="52.1753671858" lon="-2.1028317511"><ele>33.30</ele><time>2015-11-25T11:00:34Z</time></trkpt><trkpt lat="52.1753632464" lon="-2.1028260514"><ele>32.82</ele><time>2015-11-25T11:00:56Z</time></trkpt><trkpt lat="52.1753685270" lon="-2.1028290689"><ele>32.82</ele><time>2015-11-25T11:01:25Z</time></trkpt><trkpt lat="52.1753633302" lon="-2.1028272249"><ele>32.82</ele><time>2015-11-25T11:01:56Z</time></trkpt><trkpt lat="52.1753611509" lon="-2.1028262191"><ele>32.34</ele><time>2015-11-25T11:02:30Z</time></trkpt><trkpt lat="52.1753619891" lon="-2.1028225310"><ele>32.82</ele><time>2015-11-25T11:03:00Z</time></trkpt><trkpt lat="52.1753597260" lon="-2.1028226987"><ele>32.82</ele><time>2015-11-25T11:03:24Z</time></trkpt><trkpt lat="52.1753598936" lon="-2.1028237045"><ele>32.82</ele><time>2015-11-25T11:03:57Z</time></trkpt><trkpt lat="52.1753598098" lon="-2.1028266381"><ele>32.34</ele><time>2015-11-25T11:04:23Z</time></trkpt><trkpt lat="52.1753609832" lon="-2.1028287336"><ele>32.34</ele><time>2015-11-25T11:04:54Z</time></trkpt><trkpt lat="52.1753492486" lon="-2.1028509457"><ele>32.34</ele><time>2015-11-25T11:05:18Z</time></trkpt><trkpt lat="52.1753498353" lon="-2.1028450783"><ele>32.34</ele><time>2015-11-25T11:05:50Z</time></trkpt><trkpt lat="52.1753498353" lon="-2.1028410550"><ele>31.86</ele><time>2015-11-25T11:06:23Z</time></trkpt><trkpt lat="52.1753537748" lon="-2.1028418932"><ele>31.86</ele><time>2015-11-25T11:06:44Z</time></trkpt><trkpt lat="52.1753593907" lon="-2.1028428990"><ele>31.86</ele><time>2015-11-25T11:07:06Z</time></trkpt><trkpt lat="52.1753667668" lon="-2.1028403006"><ele>31.86</ele><time>2015-11-25T11:07:32Z</time></trkpt><trkpt lat="52.1753535233" lon="-2.1028813720"><ele>31.86</ele><time>2015-11-25T11:07:48Z</time></trkpt><trkpt lat="52.1752930060" lon="-2.1031177416"><ele>32.82</ele><time>2015-11-25T11:08:04Z</time></trkpt><trkpt lat="52.1752224304" lon="-2.1033179853"><ele>32.82</ele><time>2015-11-25T11:08:19Z</time></trkpt><trkpt lat="52.1751370188" lon="-2.1035465598"><ele>34.26</ele><time>2015-11-25T11:08:37Z</time></trkpt><trkpt lat="52.1750726458" lon="-2.1037278604"><ele>34.74</ele><time>2015-11-25T11:08:55Z</time></trkpt><trkpt lat="52.1750007290" lon="-2.1039497294"><ele>35.23</ele><time>2015-11-25T11:09:13Z</time></trkpt><trkpt lat="52.1749304049" lon="-2.1041604504"><ele>36.67</ele><time>2015-11-25T11:09:30Z</time></trkpt><trkpt lat="52.1748719830" lon="-2.1043350454"><ele>37.15</ele><time>2015-11-25T11:09:45Z</time></trkpt><trkpt lat="52.1747727413" lon="-2.1046272386"><ele>38.11</ele><time>2015-11-25T11:10:06Z</time></trkpt><trkpt lat="52.1746565681" lon="-2.1048938669"><ele>39.55</ele><time>2015-11-25T11:10:26Z</time></trkpt><trkpt lat="52.1745866630" lon="-2.1051205136"><ele>40.51</ele><time>2015-11-25T11:10:43Z</time></trkpt><trkpt lat="52.1745063644" lon="-2.1053786762"><ele>41.95</ele><time>2015-11-25T11:11:01Z</time></trkpt><trkpt lat="52.1744098049" lon="-2.1056193206"><ele>43.40</ele><time>2015-11-25T11:11:20Z</time></trkpt><trkpt lat="52.1743233874" lon="-2.1058354899"><ele>44.84</ele><time>2015-11-25T11:11:36Z</time></trkpt><trkpt lat="52.1742700785" lon="-2.1060015354"><ele>45.32</ele><time>2015-11-25T11:11:54Z</time></trkpt><trkpt lat="52.1742561646" lon="-2.1060426068"><ele>46.28</ele><time>2015-11-25T11:12:16Z</time></trkpt><trkpt lat="52.1742381435" lon="-2.1061545052"><ele>46.76</ele><time>2015-11-25T11:12:40Z</time></trkpt><trkpt lat="52.1742217150" lon="-2.1061037108"><ele>46.28</ele><time>2015-11-25T11:13:02Z</time></trkpt><trkpt lat="52.1742414124" lon="-2.1060913056"><ele>46.76</ele><time>2015-11-25T11:13:26Z</time></trkpt><trkpt lat="52.1742054541" lon="-2.1061722748"><ele>47.72</ele><time>2015-11-25T11:13:42Z</time></trkpt><trkpt lat="52.1742135845" lon="-2.1061760467"><ele>47.72</ele><time>2015-11-25T11:14:04Z</time></trkpt><trkpt lat="52.1741592698" lon="-2.1062435210"><ele>47.24</ele><time>2015-11-25T11:14:21Z</time></trkpt><trkpt lat="52.1740740258" lon="-2.1063770447"><ele>48.20</ele><time>2015-11-25T11:14:37Z</time></trkpt><trkpt lat="52.1739835013" lon="-2.1066538151"><ele>49.65</ele><time>2015-11-25T11:14:58Z</time></trkpt><trkpt lat="52.1739269234" lon="-2.1068077069"><ele>49.65</ele><time>2015-11-25T11:15:09Z</time></trkpt><trkpt lat="52.1738396678" lon="-2.1070830524"><ele>50.61</ele><time>2015-11-25T11:15:28Z</time></trkpt><trkpt lat="52.1737607941" lon="-2.1073552966"><ele>51.09</ele><time>2015-11-25T11:15:49Z</time></trkpt><trkpt lat="52.1736560203" lon="-2.1076746471"><ele>51.09</ele><time>2015-11-25T11:16:10Z</time></trkpt><trkpt lat="52.1735866182" lon="-2.1078594681"><ele>50.61</ele><time>2015-11-25T11:16:26Z</time></trkpt><trkpt lat="52.1735493187" lon="-2.1079593804"><ele>50.61</ele><time>2015-11-25T11:16:43Z</time></trkpt><trkpt lat="52.1735245083" lon="-2.1080305427"><ele>50.61</ele><time>2015-11-25T11:17:01Z</time></trkpt><trkpt lat="52.1734889690" lon="-2.1081753820"><ele>50.61</ele><time>2015-11-25T11:17:19Z</time></trkpt><trkpt lat="52.1734608058" lon="-2.1083719376"><ele>50.13</ele><time>2015-11-25T11:17:38Z</time></trkpt><trkpt lat="52.1734691877" lon="-2.1084175352"><ele>50.13</ele><time>2015-11-25T11:18:03Z</time></trkpt><trkpt lat="52.1734588780" lon="-2.1084395796"><ele>49.65</ele><time>2015-11-25T11:18:25Z</time></trkpt><trkpt lat="52.1733739693" lon="-2.1087929606"><ele>49.65</ele><time>2015-11-25T11:18:45Z</time></trkpt><trkpt lat="52.1732923295" lon="-2.1092135645"><ele>50.13</ele><time>2015-11-25T11:19:11Z</time></trkpt><trkpt lat="52.1732079238" lon="-2.1095842961"><ele>50.13</ele><time>2015-11-25T11:19:32Z</time></trkpt><trkpt lat="52.1730654314" lon="-2.1099624876"><ele>50.13</ele><time>2015-11-25T11:19:56Z</time></trkpt><trkpt lat="52.1730153076" lon="-2.1099550277"><ele>50.13</ele><time>2015-11-25T11:20:12Z</time></trkpt><trkpt lat="52.1728651039" lon="-2.1099141240"><ele>50.61</ele><time>2015-11-25T11:20:28Z</time></trkpt><trkpt lat="52.1728242002" lon="-2.1098847874"><ele>51.57</ele><time>2015-11-25T11:20:32Z</time></trkpt><trkpt lat="52.1726835519" lon="-2.1097743139"><ele>51.09</ele><time>2015-11-25T11:20:49Z</time></trkpt><trkpt lat="52.1724998206" lon="-2.1097256150"><ele>47.72</ele><time>2015-11-25T11:21:07Z</time></trkpt><trkpt lat="52.1724911872" lon="-2.1097143833"><ele>51.09</ele><time>2015-11-25T11:21:08Z</time></trkpt><trkpt lat="52.1723635308" lon="-2.1096311510"><ele>50.61</ele><time>2015-11-25T11:21:22Z</time></trkpt><trkpt lat="52.1722434182" lon="-2.1095470805"><ele>51.09</ele><time>2015-11-25T11:21:36Z</time></trkpt><trkpt lat="52.1719786339" lon="-2.1095037460"><ele>51.57</ele><time>2015-11-25T11:22:01Z</time></trkpt><trkpt lat="52.1717705112" lon="-2.1095407940"><ele>51.57</ele><time>2015-11-25T11:22:24Z</time></trkpt><trkpt lat="52.1715531684" lon="-2.1096419636"><ele>51.57</ele><time>2015-11-25T11:22:48Z</time></trkpt><trkpt lat="52.1713917330" lon="-2.1096508484"><ele>52.05</ele><time>2015-11-25T11:23:08Z</time></trkpt><trkpt lat="52.1713467222" lon="-2.1096590627"><ele>51.57</ele><time>2015-11-25T11:23:27Z</time></trkpt><trkpt lat="52.1712308843" lon="-2.1099236794"><ele>51.57</ele><time>2015-11-25T11:23:47Z</time></trkpt><trkpt lat="52.1711442154" lon="-2.1101167146"><ele>52.53</ele><time>2015-11-25T11:24:07Z</time></trkpt><trkpt lat="52.1710553672" lon="-2.1103874501"><ele>52.05</ele><time>2015-11-25T11:24:29Z</time></trkpt><trkpt lat="52.1709564608" lon="-2.1106224786"><ele>51.57</ele><time>2015-11-25T11:24:49Z</time></trkpt><trkpt lat="52.1708521061" lon="-2.1108639613"><ele>52.05</ele><time>2015-11-25T11:25:10Z</time></trkpt><trkpt lat="52.1708006412" lon="-2.1110056993"><ele>52.53</ele><time>2015-11-25T11:25:20Z</time></trkpt><trkpt lat="52.1706867311" lon="-2.1112770215"><ele>52.53</ele><time>2015-11-25T11:25:40Z</time></trkpt><trkpt lat="52.1705956198" lon="-2.1115605813"><ele>51.57</ele><time>2015-11-25T11:26:03Z</time></trkpt><trkpt lat="52.1704967972" lon="-2.1118461527"><ele>51.57</ele><time>2015-11-25T11:26:24Z</time></trkpt><trkpt lat="52.1704148222" lon="-2.1120479051"><ele>51.57</ele><time>2015-11-25T11:26:43Z</time></trkpt><trkpt lat="52.1703486051" lon="-2.1122426167"><ele>51.09</ele><time>2015-11-25T11:27:02Z</time></trkpt><trkpt lat="52.1703369543" lon="-2.1122497413"><ele>51.09</ele><time>2015-11-25T11:27:18Z</time></trkpt><trkpt lat="52.1702880040" lon="-2.1123176347"><ele>50.61</ele><time>2015-11-25T11:27:37Z</time></trkpt><trkpt lat="52.1702979784" lon="-2.1124720294"><ele>50.13</ele><time>2015-11-25T11:28:00Z</time></trkpt><trkpt lat="52.1702730004" lon="-2.1125255898"><ele>50.13</ele><time>2015-11-25T11:28:18Z</time></trkpt><trkpt lat="52.1702684741" lon="-2.1125174593"><ele>49.65</ele><time>2015-11-25T11:28:39Z</time></trkpt><trkpt lat="52.1702355333" lon="-2.1125288587"><ele>49.65</ele><time>2015-11-25T11:29:03Z</time></trkpt><trkpt lat="52.1702766884" lon="-2.1127538290"><ele>49.65</ele><time>2015-11-25T11:29:22Z</time></trkpt><trkpt lat="52.1702565718" lon="-2.1128254943"><ele>50.13</ele><time>2015-11-25T11:29:37Z</time></trkpt><trkpt lat="52.1702423226" lon="-2.1128930524"><ele>49.65</ele><time>2015-11-25T11:30:01Z</time></trkpt><trkpt lat="52.1702092979" lon="-2.1129070502"><ele>49.65</ele><time>2015-11-25T11:30:20Z</time></trkpt><trkpt lat="52.1701835655" lon="-2.1129936352"><ele>50.13</ele><time>2015-11-25T11:30:39Z</time></trkpt><trkpt lat="52.1701735072" lon="-2.1130000055"><ele>49.65</ele><time>2015-11-25T11:31:03Z</time></trkpt><trkpt lat="52.1701756027" lon="-2.1129955631"><ele>50.13</ele><time>2015-11-25T11:31:25Z</time></trkpt><trkpt lat="52.1701694839" lon="-2.1129803918"><ele>49.65</ele><time>2015-11-25T11:31:45Z</time></trkpt><trkpt lat="52.1701713279" lon="-2.1130387299"><ele>50.13</ele><time>2015-11-25T11:32:05Z</time></trkpt><trkpt lat="52.1701595932" lon="-2.1130002569"><ele>49.65</ele><time>2015-11-25T11:32:37Z</time></trkpt><trkpt lat="52.1701572463" lon="-2.1131005045"><ele>49.16</ele><time>2015-11-25T11:32:53Z</time></trkpt><trkpt lat="52.1701615211" lon="-2.1131595131"><ele>50.13</ele><time>2015-11-25T11:33:11Z</time></trkpt><trkpt lat="52.1701463498" lon="-2.1132625267"><ele>50.61</ele><time>2015-11-25T11:33:28Z</time></trkpt><trkpt lat="52.1701373812" lon="-2.1132880077"><ele>53.97</ele><time>2015-11-25T11:33:36Z</time></trkpt><trkpt lat="52.1701367944" lon="-2.1132997423"><ele>51.09</ele><time>2015-11-25T11:33:37Z</time></trkpt><trkpt lat="52.1700967290" lon="-2.1134272311"><ele>50.61</ele><time>2015-11-25T11:33:54Z</time></trkpt><trkpt lat="52.1700898558" lon="-2.1134248842"><ele>51.09</ele><time>2015-11-25T11:34:17Z</time></trkpt><trkpt lat="52.1701422427" lon="-2.1134333499"><ele>51.09</ele><time>2015-11-25T11:34:35Z</time></trkpt><trkpt lat="52.1701615211" lon="-2.1135250479"><ele>51.09</ele><time>2015-11-25T11:34:48Z</time></trkpt><trkpt lat="52.1701875888" lon="-2.1135724895"><ele>50.61</ele><time>2015-11-25T11:34:52Z</time></trkpt><trkpt lat="52.1702805441" lon="-2.1138716396"><ele>51.09</ele><time>2015-11-25T11:35:13Z</time></trkpt><trkpt lat="52.1703473479" lon="-2.1141066682"><ele>51.09</ele><time>2015-11-25T11:35:30Z</time></trkpt><trkpt lat="52.1703851502" lon="-2.1141929179"><ele>50.13</ele><time>2015-11-25T11:35:43Z</time></trkpt><trkpt lat="52.1704605874" lon="-2.1144582052"><ele>50.13</ele><time>2015-11-25T11:36:00Z</time></trkpt><trkpt lat="52.1705216914" lon="-2.1145894658"><ele>50.13</ele><time>2015-11-25T11:36:09Z</time></trkpt><trkpt lat="52.1705503576" lon="-2.1146928146"><ele>50.13</ele><time>2015-11-25T11:36:18Z</time></trkpt><trkpt lat="52.1705783531" lon="-2.1147537511"><ele>49.16</ele><time>2015-11-25T11:36:37Z</time></trkpt><trkpt lat="52.1706216037" lon="-2.1148698404"><ele>49.65</ele><time>2015-11-25T11:36:55Z</time></trkpt><trkpt lat="52.1706138924" lon="-2.1147770528"><ele>49.16</ele><time>2015-11-25T11:37:18Z</time></trkpt><trkpt lat="52.1706405468" lon="-2.1148547530"><ele>49.65</ele><time>2015-11-25T11:37:41Z</time></trkpt><trkpt lat="52.1706961188" lon="-2.1151346248"><ele>49.65</ele><time>2015-11-25T11:37:59Z</time></trkpt><trkpt lat="52.1707049198" lon="-2.1151371393"><ele>49.16</ele><time>2015-11-25T11:38:10Z</time></trkpt><trkpt lat="52.1707718913" lon="-2.1153710783"><ele>49.16</ele><time>2015-11-25T11:38:28Z</time></trkpt><trkpt lat="52.1708915848" lon="-2.1156078670"><ele>49.65</ele><time>2015-11-25T11:38:48Z</time></trkpt><trkpt lat="52.1709827799" lon="-2.1157018282"><ele>49.65</ele><time>2015-11-25T11:39:00Z</time></trkpt><trkpt lat="52.1711133700" lon="-2.1159086097"><ele>49.65</ele><time>2015-11-25T11:39:19Z</time></trkpt><trkpt lat="52.1712012962" lon="-2.1159411315"><ele>50.13</ele><time>2015-11-25T11:39:27Z</time></trkpt><trkpt lat="52.1713243425" lon="-2.1160418820"><ele>49.65</ele><time>2015-11-25T11:39:42Z</time></trkpt><trkpt lat="52.1715374105" lon="-2.1162223443"><ele>50.61</ele><time>2015-11-25T11:40:03Z</time></trkpt><trkpt lat="52.1716680843" lon="-2.1163313929"><ele>51.09</ele><time>2015-11-25T11:40:21Z</time></trkpt><trkpt lat="52.1718003508" lon="-2.1164072491"><ele>51.09</ele><time>2015-11-25T11:40:38Z</time></trkpt><trkpt lat="52.1719347965" lon="-2.1164631564"><ele>51.09</ele><time>2015-11-25T11:40:52Z</time></trkpt><trkpt lat="52.1720525622" lon="-2.1165333968"><ele>51.57</ele><time>2015-11-25T11:41:09Z</time></trkpt><trkpt lat="52.1720805578" lon="-2.1165561117"><ele>50.13</ele><time>2015-11-25T11:41:33Z</time></trkpt><trkpt lat="52.1722042747" lon="-2.1166498214"><ele>50.61</ele><time>2015-11-25T11:41:48Z</time></trkpt><trkpt lat="52.1723394748" lon="-2.1168138552"><ele>50.13</ele><time>2015-11-25T11:42:09Z</time></trkpt><trkpt lat="52.1723503713" lon="-2.1167450398"><ele>50.61</ele><time>2015-11-25T11:42:33Z</time></trkpt><trkpt lat="52.1724315081" lon="-2.1167267673"><ele>50.61</ele><time>2015-11-25T11:42:46Z</time></trkpt><trkpt lat="52.1725618467" lon="-2.1165185608"><ele>50.61</ele><time>2015-11-25T11:43:02Z</time></trkpt><trkpt lat="52.1726542152" lon="-2.1160630044"><ele>50.13</ele><time>2015-11-25T11:43:25Z</time></trkpt><trkpt lat="52.1727082785" lon="-2.1156226192"><ele>50.61</ele><time>2015-11-25T11:43:49Z</time></trkpt><trkpt lat="52.1727051772" lon="-2.1156061068"><ele>50.13</ele><time>2015-11-25T11:44:04Z</time></trkpt><trkpt lat="52.1727357712" lon="-2.1154141612"><ele>50.61</ele><time>2015-11-25T11:44:20Z</time></trkpt><trkpt lat="52.1727465838" lon="-2.1153869200"><ele>50.61</ele><time>2015-11-25T11:44:42Z</time></trkpt><trkpt lat="52.1728000604" lon="-2.1151047014"><ele>49.16</ele><time>2015-11-25T11:45:01Z</time></trkpt><trkpt lat="52.1728205960" lon="-2.1149355546"><ele>49.65</ele><time>2015-11-25T11:45:20Z</time></trkpt><trkpt lat="52.1729142219" lon="-2.1149066370"><ele>49.16</ele><time>2015-11-25T11:45:39Z</time></trkpt><trkpt lat="52.1730804350" lon="-2.1149679925"><ele>49.16</ele><time>2015-11-25T11:45:58Z</time></trkpt><trkpt lat="52.1732153837" lon="-2.1150613669"><ele>49.65</ele><time>2015-11-25T11:46:13Z</time></trkpt><trkpt lat="52.1733783279" lon="-2.1151101496"><ele>49.65</ele><time>2015-11-25T11:46:30Z</time></trkpt><trkpt lat="52.1735380869" lon="-2.1151484549"><ele>49.65</ele><time>2015-11-25T11:46:47Z</time></trkpt><trkpt lat="52.1736139432" lon="-2.1151611954"><ele>50.13</ele><time>2015-11-25T11:47:05Z</time></trkpt><trkpt lat="52.1736777294" lon="-2.1152306814"><ele>50.61</ele><time>2015-11-25T11:47:13Z</time></trkpt><trkpt lat="52.1738462895" lon="-2.1153082140"><ele>50.61</ele><time>2015-11-25T11:47:30Z</time></trkpt><trkpt lat="52.1739929728" lon="-2.1153715812"><ele>50.61</ele><time>2015-11-25T11:47:45Z</time></trkpt><trkpt lat="52.1741292626" lon="-2.1154383011"><ele>51.57</ele><time>2015-11-25T11:48:01Z</time></trkpt><trkpt lat="52.1742751915" lon="-2.1154652908"><ele>51.09</ele><time>2015-11-25T11:48:19Z</time></trkpt><trkpt lat="52.1744196955" lon="-2.1155051887"><ele>51.09</ele><time>2015-11-25T11:48:35Z</time></trkpt><trkpt lat="52.1745819692" lon="-2.1155683044"><ele>52.05</ele><time>2015-11-25T11:48:54Z</time></trkpt><trkpt lat="52.1747667901" lon="-2.1156579070"><ele>52.05</ele><time>2015-11-25T11:49:15Z</time></trkpt><trkpt lat="52.1749126352" lon="-2.1157213580"><ele>52.53</ele><time>2015-11-25T11:49:32Z</time></trkpt><trkpt lat="52.1750361845" lon="-2.1157744993"><ele>52.53</ele><time>2015-11-25T11:49:51Z</time></trkpt><trkpt lat="52.1750625037" lon="-2.1157779358"><ele>52.05</ele><time>2015-11-25T11:50:06Z</time></trkpt><trkpt lat="52.1750913374" lon="-2.1156888362"><ele>53.01</ele><time>2015-11-25T11:50:13Z</time></trkpt><trkpt lat="52.1751091070" lon="-2.1156092081"><ele>53.01</ele><time>2015-11-25T11:50:28Z</time></trkpt><trkpt lat="52.1751566324" lon="-2.1155109722"><ele>52.53</ele><time>2015-11-25T11:50:42Z</time></trkpt><trkpt lat="52.1752225142" lon="-2.1152376384"><ele>52.53</ele><time>2015-11-25T11:51:02Z</time></trkpt><trkpt lat="52.1752536111" lon="-2.1151288413"><ele>49.16</ele><time>2015-11-25T11:51:09Z</time></trkpt><trkpt lat="52.1752616577" lon="-2.1151255723"><ele>52.53</ele><time>2015-11-25T11:51:11Z</time></trkpt><trkpt lat="52.1752278786" lon="-2.1150494646"><ele>52.05</ele><time>2015-11-25T11:51:26Z</time></trkpt><trkpt lat="52.1752407029" lon="-2.1150420886"><ele>52.53</ele><time>2015-11-25T11:51:41Z</time></trkpt><trkpt lat="52.1752612386" lon="-2.1150544938"><ele>52.05</ele><time>2015-11-25T11:51:59Z</time></trkpt><trkpt lat="52.1753090993" lon="-2.1149082296"><ele>51.57</ele><time>2015-11-25T11:52:17Z</time></trkpt><trkpt lat="52.1753710415" lon="-2.1145533398"><ele>51.09</ele><time>2015-11-25T11:52:37Z</time></trkpt><trkpt lat="52.1754391026" lon="-2.1142615657"><ele>51.57</ele><time>2015-11-25T11:52:56Z</time></trkpt><trkpt lat="52.1755161323" lon="-2.1139176562"><ele>50.61</ele><time>2015-11-25T11:53:18Z</time></trkpt><trkpt lat="52.1755787451" lon="-2.1137288958"><ele>49.65</ele><time>2015-11-25T11:53:42Z</time></trkpt><trkpt lat="52.1756592114" lon="-2.1132074576"><ele>48.20</ele><time>2015-11-25T11:54:03Z</time></trkpt><trkpt lat="52.1757502388" lon="-2.1128342114"><ele>47.72</ele><time>2015-11-25T11:54:24Z</time></trkpt><trkpt lat="52.1757843532" lon="-2.1124720294"><ele>47.24</ele><time>2015-11-25T11:54:44Z</time></trkpt><trkpt lat="52.1758359019" lon="-2.1121845301"><ele>46.28</ele><time>2015-11-25T11:55:04Z</time></trkpt><trkpt lat="52.1758991014" lon="-2.1119627450"><ele>44.84</ele><time>2015-11-25T11:55:26Z</time></trkpt><trkpt lat="52.1759509854" lon="-2.1116594039"><ele>44.36</ele><time>2015-11-25T11:55:48Z</time></trkpt><trkpt lat="52.1759978402" lon="-2.1112761833"><ele>44.36</ele><time>2015-11-25T11:56:09Z</time></trkpt><trkpt lat="52.1760333795" lon="-2.1109561622"><ele>37.15</ele><time>2015-11-25T11:56:27Z</time></trkpt><trkpt lat="52.1760425996" lon="-2.1108886879"><ele>43.88</ele><time>2015-11-25T11:56:31Z</time></trkpt><trkpt lat="52.1760487184" lon="-2.1106389072"><ele>43.88</ele><time>2015-11-25T11:56:46Z</time></trkpt><trkpt lat="52.1760774683" lon="-2.1103312075"><ele>43.88</ele><time>2015-11-25T11:57:09Z</time></trkpt><trkpt lat="52.1760629676" lon="-2.1102413535"><ele>43.88</ele><time>2015-11-25T11:57:28Z</time></trkpt><trkpt lat="52.1760487184" lon="-2.1101679280"><ele>43.88</ele><time>2015-11-25T11:57:52Z</time></trkpt><trkpt lat="52.1760381572" lon="-2.1101592947"><ele>43.88</ele><time>2015-11-25T11:58:16Z</time></trkpt><trkpt lat="52.1760486346" lon="-2.1101228334"><ele>44.36</ele><time>2015-11-25T11:58:32Z</time></trkpt><trkpt lat="52.1760454495" lon="-2.1101251803"><ele>43.88</ele><time>2015-11-25T11:58:51Z</time></trkpt><trkpt lat="52.1760931425" lon="-2.1101593785"><ele>43.88</ele><time>2015-11-25T11:59:09Z</time></trkpt><trkpt lat="52.1761685796" lon="-2.1100978553"><ele>42.92</ele><time>2015-11-25T11:59:28Z</time></trkpt><trkpt lat="52.1762045380" lon="-2.1100611426"><ele>42.92</ele><time>2015-11-25T11:59:31Z</time></trkpt><trkpt lat="52.1764549054" lon="-2.1097745653"><ele>42.44</ele><time>2015-11-25T11:59:55Z</time></trkpt><trkpt lat="52.1765825618" lon="-2.1096676961"><ele>41.47</ele><time>2015-11-25T12:00:09Z</time></trkpt><trkpt lat="52.1767916903" lon="-2.1095785964"><ele>40.51</ele><time>2015-11-25T12:00:30Z</time></trkpt><trkpt lat="52.1769429836" lon="-2.1094161551"><ele>40.51</ele><time>2015-11-25T12:00:49Z</time></trkpt><trkpt lat="52.1770570613" lon="-2.1091788635"><ele>42.44</ele><time>2015-11-25T12:01:05Z</time></trkpt><trkpt lat="52.1771397069" lon="-2.1090036817"><ele>39.07</ele><time>2015-11-25T12:01:21Z</time></trkpt><trkpt lat="52.1771651879" lon="-2.1089485288"><ele>41.47</ele><time>2015-11-25T12:01:37Z</time></trkpt><trkpt lat="52.1771692112" lon="-2.1089398116"><ele>37.15</ele><time>2015-11-25T12:01:38Z</time></trkpt><trkpt lat="52.1771744080" lon="-2.1089310944"><ele>40.03</ele><time>2015-11-25T12:01:39Z</time></trkpt><trkpt lat="52.1772048343" lon="-2.1088606864"><ele>39.07</ele><time>2015-11-25T12:01:48Z</time></trkpt><trkpt lat="52.1772485040" lon="-2.1088793781"><ele>39.55</ele><time>2015-11-25T12:02:04Z</time></trkpt><trkpt lat="52.1772480011" lon="-2.1088701580"><ele>39.55</ele><time>2015-11-25T12:02:27Z</time></trkpt><trkpt lat="52.1772152279" lon="-2.1088749357"><ele>39.55</ele><time>2015-11-25T12:02:39Z</time></trkpt><trkpt lat="52.1772723086" lon="-2.1087000892"><ele>38.59</ele><time>2015-11-25T12:02:55Z</time></trkpt><trkpt lat="52.1774492506" lon="-2.1084630489"><ele>38.11</ele><time>2015-11-25T12:03:16Z</time></trkpt><trkpt lat="52.1776110213" lon="-2.1081667487"><ele>38.11</ele><time>2015-11-25T12:03:39Z</time></trkpt><trkpt lat="52.1777974349" lon="-2.1078625694"><ele>37.15</ele><time>2015-11-25T12:04:01Z</time></trkpt><trkpt lat="52.1778230835" lon="-2.1078019682"><ele>37.15</ele><time>2015-11-25T12:04:06Z</time></trkpt><trkpt lat="52.1779943258" lon="-2.1074917540"><ele>36.19</ele><time>2015-11-25T12:04:29Z</time></trkpt><trkpt lat="52.1781145222" lon="-2.1072056796"><ele>36.19</ele><time>2015-11-25T12:04:49Z</time></trkpt><trkpt lat="52.1781437751" lon="-2.1071820427"><ele>35.71</ele><time>2015-11-25T12:04:53Z</time></trkpt><trkpt lat="52.1782333776" lon="-2.1070403885"><ele>35.71</ele><time>2015-11-25T12:05:09Z</time></trkpt><trkpt lat="52.1783242375" lon="-2.1068734210"><ele>34.74</ele><time>2015-11-25T12:05:27Z</time></trkpt><trkpt lat="52.1783442702" lon="-2.1067923680"><ele>35.23</ele><time>2015-11-25T12:05:43Z</time></trkpt><trkpt lat="52.1784933843" lon="-2.1065865085"><ele>38.11</ele><time>2015-11-25T12:06:02Z</time></trkpt><trkpt lat="52.1784914564" lon="-2.1065808088"><ele>34.74</ele><time>2015-11-25T12:06:04Z</time></trkpt><trkpt lat="52.1784994192" lon="-2.1065831557"><ele>35.23</ele><time>2015-11-25T12:06:23Z</time></trkpt><trkpt lat="52.1785198711" lon="-2.1066505462"><ele>34.74</ele><time>2015-11-25T12:06:30Z</time></trkpt><trkpt lat="52.1785481181" lon="-2.1067714971"><ele>35.23</ele><time>2015-11-25T12:06:41Z</time></trkpt><trkpt lat="52.1785456873" lon="-2.1068073716"><ele>35.23</ele><time>2015-11-25T12:06:43Z</time></trkpt><trkpt lat="52.1785330307" lon="-2.1070209425"><ele>35.23</ele><time>2015-11-25T12:06:56Z</time></trkpt><trkpt lat="52.1785335336" lon="-2.1071576513"><ele>35.23</ele><time>2015-11-25T12:07:11Z</time></trkpt><trkpt lat="52.1785404067" lon="-2.1072268859"><ele>35.71</ele><time>2015-11-25T12:07:15Z</time></trkpt><trkpt lat="52.1785118245" lon="-2.1074811928"><ele>36.19</ele><time>2015-11-25T12:07:30Z</time></trkpt><trkpt lat="52.1784937195" lon="-2.1076859627"><ele>35.71</ele><time>2015-11-25T12:07:44Z</time></trkpt><trkpt lat="52.1784933005" lon="-2.1076844539"><ele>36.67</ele><time>2015-11-25T12:07:50Z</time></trkpt><trkpt lat="52.1784969885" lon="-2.1077483241"><ele>36.19</ele><time>2015-11-25T12:08:03Z</time></trkpt><trkpt lat="52.1784962341" lon="-2.1077889763"><ele>36.19</ele><time>2015-11-25T12:08:06Z</time></trkpt><trkpt lat="52.1784888580" lon="-2.1078176424"><ele>35.71</ele><time>2015-11-25T12:08:08Z</time></trkpt><trkpt lat="52.1784691606" lon="-2.1080384217"><ele>36.19</ele><time>2015-11-25T12:08:22Z</time></trkpt><trkpt lat="52.1784699149" lon="-2.1081531700"><ele>36.67</ele><time>2015-11-25T12:08:29Z</time></trkpt><trkpt lat="52.1784627903" lon="-2.1081860270"><ele>36.19</ele><time>2015-11-25T12:08:31Z</time></trkpt><trkpt lat="52.1784753632" lon="-2.1083901264"><ele>36.19</ele><time>2015-11-25T12:08:45Z</time></trkpt><trkpt lat="52.1784913726" lon="-2.1084286831"><ele>36.19</ele><time>2015-11-25T12:08:59Z</time></trkpt><trkpt lat="52.1784788836" lon="-2.1084432676"><ele>36.19</ele><time>2015-11-25T12:09:15Z</time></trkpt><trkpt lat="52.1785129979" lon="-2.1084342152"><ele>35.71</ele><time>2015-11-25T12:09:26Z</time></trkpt><trkpt lat="52.1785139199" lon="-2.1084461175"><ele>35.71</ele><time>2015-11-25T12:09:44Z</time></trkpt><trkpt lat="52.1785145067" lon="-2.1084506437"><ele>39.07</ele><time>2015-11-25T12:10:00Z</time></trkpt><trkpt lat="52.1785186976" lon="-2.1084319521"><ele>36.19</ele><time>2015-11-25T12:10:09Z</time></trkpt><trkpt lat="52.1785775386" lon="-2.1083731949"><ele>35.71</ele><time>2015-11-25T12:10:24Z</time></trkpt><trkpt lat="52.1786253154" lon="-2.1083014458"><ele>31.38</ele><time>2015-11-25T12:10:41Z</time></trkpt><trkpt lat="52.1786342841" lon="-2.1082938183"><ele>35.71</ele><time>2015-11-25T12:10:42Z</time></trkpt><trkpt lat="52.1786668058" lon="-2.1082689241"><ele>35.23</ele><time>2015-11-25T12:10:45Z</time></trkpt><trkpt lat="52.1786986571" lon="-2.1082227398"><ele>35.71</ele><time>2015-11-25T12:10:48Z</time></trkpt><trkpt lat="52.1788195241" lon="-2.1080778167"><ele>35.23</ele><time>2015-11-25T12:11:03Z</time></trkpt><trkpt lat="52.1789169218" lon="-2.1079711989"><ele>34.74</ele><time>2015-11-25T12:11:15Z</time></trkpt><trkpt lat="52.1789459232" lon="-2.1079390123"><ele>38.59</ele><time>2015-11-25T12:11:18Z</time></trkpt><trkpt lat="52.1789536346" lon="-2.1079281159"><ele>34.74</ele><time>2015-11-25T12:11:19Z</time></trkpt><trkpt lat="52.1790738311" lon="-2.1077743080"><ele>34.26</ele><time>2015-11-25T12:11:35Z</time></trkpt><trkpt lat="52.1792341769" lon="-2.1076297201"><ele>33.78</ele><time>2015-11-25T12:11:56Z</time></trkpt><trkpt lat="52.1792677883" lon="-2.1075482480"><ele>33.78</ele><time>2015-11-25T12:12:17Z</time></trkpt><trkpt lat="52.1794035751" lon="-2.1072900016"><ele>34.26</ele><time>2015-11-25T12:12:40Z</time></trkpt><trkpt lat="52.1796143800" lon="-2.1071304940"><ele>34.74</ele><time>2015-11-25T12:12:59Z</time></trkpt><trkpt lat="52.1796508413" lon="-2.1070738323"><ele>34.74</ele><time>2015-11-25T12:13:09Z</time></trkpt><trkpt lat="52.1797823533" lon="-2.1070776880"><ele>34.26</ele><time>2015-11-25T12:13:23Z</time></trkpt><trkpt lat="52.1799561102" lon="-2.1071403846"><ele>34.74</ele><time>2015-11-25T12:13:40Z</time></trkpt><trkpt lat="52.1800950821" lon="-2.1072246227"><ele>35.23</ele><time>2015-11-25T12:13:59Z</time></trkpt><trkpt lat="52.1802628040" lon="-2.1073964518"><ele>35.23</ele><time>2015-11-25T12:14:19Z</time></trkpt><trkpt lat="52.1804439370" lon="-2.1074578073"><ele>34.74</ele><time>2015-11-25T12:14:38Z</time></trkpt><trkpt lat="52.1805803943" lon="-2.1076422092"><ele>35.71</ele><time>2015-11-25T12:14:56Z</time></trkpt><trkpt lat="52.1807512175" lon="-2.1077521797"><ele>36.67</ele><time>2015-11-25T12:15:16Z</time></trkpt><trkpt lat="52.1809138265" lon="-2.1078406088"><ele>36.67</ele><time>2015-11-25T12:15:35Z</time></trkpt><trkpt lat="52.1810386330" lon="-2.1079634875"><ele>37.63</ele><time>2015-11-25T12:15:55Z</time></trkpt><trkpt lat="52.1810397226" lon="-2.1079497412"><ele>37.63</ele><time>2015-11-25T12:16:17Z</time></trkpt><trkpt lat="52.1810332686" lon="-2.1079775691"><ele>37.15</ele><time>2015-11-25T12:16:37Z</time></trkpt><trkpt lat="52.1810867451" lon="-2.1080245916"><ele>36.67</ele><time>2015-11-25T12:16:54Z</time></trkpt><trkpt lat="52.1811052691" lon="-2.1080327220"><ele>37.15</ele><time>2015-11-25T12:17:11Z</time></trkpt><trkpt lat="52.1811909322" lon="-2.1079177223"><ele>37.15</ele><time>2015-11-25T12:17:28Z</time></trkpt><trkpt lat="52.1812517848" lon="-2.1079377551"><ele>35.23</ele><time>2015-11-25T12:17:34Z</time></trkpt><trkpt lat="52.1812638547" lon="-2.1079546865"><ele>37.63</ele><time>2015-11-25T12:17:37Z</time></trkpt><trkpt lat="52.1812763438" lon="-2.1079275291"><ele>37.63</ele><time>2015-11-25T12:18:03Z</time></trkpt><trkpt lat="52.1813346818" lon="-2.1078597195"><ele>36.67</ele><time>2015-11-25T12:18:19Z</time></trkpt><trkpt lat="52.1815300640" lon="-2.1078195702"><ele>35.71</ele><time>2015-11-25T12:18:36Z</time></trkpt><trkpt lat="52.1816421300" lon="-2.1077811811"><ele>36.67</ele><time>2015-11-25T12:18:46Z</time></trkpt><trkpt lat="52.1818049066" lon="-2.1077790856"><ele>36.19</ele><time>2015-11-25T12:19:00Z</time></trkpt><trkpt lat="52.1820004564" lon="-2.1077766549"><ele>36.67</ele><time>2015-11-25T12:19:19Z</time></trkpt><trkpt lat="52.1821740456" lon="-2.1078038961"><ele>37.63</ele><time>2015-11-25T12:19:36Z</time></trkpt><trkpt lat="52.1821985207" lon="-2.1078071650"><ele>36.19</ele><time>2015-11-25T12:19:39Z</time></trkpt><trkpt lat="52.1824731119" lon="-2.1078149602"><ele>40.03</ele><time>2015-11-25T12:20:03Z</time></trkpt><trkpt lat="52.1824879479" lon="-2.1078127809"><ele>36.19</ele><time>2015-11-25T12:20:04Z</time></trkpt><trkpt lat="52.1825748682" lon="-2.1078050695"><ele>31.38</ele><time>2015-11-25T12:20:12Z</time></trkpt><trkpt lat="52.1825838368" lon="-2.1078028902"><ele>35.23</ele><time>2015-11-25T12:20:13Z</time></trkpt><trkpt lat="52.1826356370" lon="-2.1077894792"><ele>33.78</ele><time>2015-11-25T12:20:18Z</time></trkpt><trkpt lat="52.1826621238" lon="-2.1078036446"><ele>35.23</ele><time>2015-11-25T12:20:21Z</time></trkpt><trkpt lat="52.1828734316" lon="-2.1080149524"><ele>34.26</ele><time>2015-11-25T12:20:46Z</time></trkpt><trkpt lat="52.1830748487" lon="-2.1082063951"><ele>34.26</ele><time>2015-11-25T12:21:09Z</time></trkpt><trkpt lat="52.1831713244" lon="-2.1082888730"><ele>35.71</ele><time>2015-11-25T12:21:28Z</time></trkpt><trkpt lat="52.1831670497" lon="-2.1082966682"><ele>35.71</ele><time>2015-11-25T12:21:52Z</time></trkpt><trkpt lat="52.1831941232" lon="-2.1082966682"><ele>35.23</ele><time>2015-11-25T12:22:05Z</time></trkpt><trkpt lat="52.1832382120" lon="-2.1083336323"><ele>34.26</ele><time>2015-11-25T12:22:09Z</time></trkpt><trkpt lat="52.1834317502" lon="-2.1084306110"><ele>34.74</ele><time>2015-11-25T12:22:29Z</time></trkpt><trkpt lat="52.1835690457" lon="-2.1084918827"><ele>34.74</ele><time>2015-11-25T12:22:46Z</time></trkpt><trkpt lat="52.1835729852" lon="-2.1085080598"><ele>34.74</ele><time>2015-11-25T12:22:47Z</time></trkpt><trkpt lat="52.1837853827" lon="-2.1086227242"><ele>34.26</ele><time>2015-11-25T12:23:04Z</time></trkpt><trkpt lat="52.1839942597" lon="-2.1087278333"><ele>32.34</ele><time>2015-11-25T12:23:19Z</time></trkpt><trkpt lat="52.1842158772" lon="-2.1088365465"><ele>30.42</ele><time>2015-11-25T12:23:34Z</time></trkpt><trkpt lat="52.1844633948" lon="-2.1089519653"><ele>29.46</ele><time>2015-11-25T12:23:50Z</time></trkpt><trkpt lat="52.1847087331" lon="-2.1090116445"><ele>28.50</ele><time>2015-11-25T12:24:06Z</time></trkpt><trkpt lat="52.1847258322" lon="-2.1090451721"><ele>28.50</ele><time>2015-11-25T12:24:22Z</time></trkpt><trkpt lat="52.1847033687" lon="-2.1090653725"><ele>28.98</ele><time>2015-11-25T12:24:42Z</time></trkpt><trkpt lat="52.1846966632" lon="-2.1090910211"><ele>28.50</ele><time>2015-11-25T12:25:01Z</time></trkpt><trkpt lat="52.1847925521" lon="-2.1092285682"><ele>29.94</ele><time>2015-11-25T12:25:17Z</time></trkpt><trkpt lat="52.1849061269" lon="-2.1093778498"><ele>29.94</ele><time>2015-11-25T12:25:31Z</time></trkpt><trkpt lat="52.1850356273" lon="-2.1094010677"><ele>30.90</ele><time>2015-11-25T12:25:48Z</time></trkpt><trkpt lat="52.1850824822" lon="-2.1094825398"><ele>31.38</ele><time>2015-11-25T12:26:03Z</time></trkpt><trkpt lat="52.1851720847" lon="-2.1095109545"><ele>32.34</ele><time>2015-11-25T12:26:23Z</time></trkpt><trkpt lat="52.1852360386" lon="-2.1095479187"><ele>32.82</ele><time>2015-11-25T12:26:47Z</time></trkpt><trkpt lat="52.1853054408" lon="-2.1095868107"><ele>33.78</ele><time>2015-11-25T12:27:02Z</time></trkpt><trkpt lat="52.1854341030" lon="-2.1096628346"><ele>35.23</ele><time>2015-11-25T12:27:22Z</time></trkpt><trkpt lat="52.1856715623" lon="-2.1097829472"><ele>36.67</ele><time>2015-11-25T12:27:43Z</time></trkpt><trkpt lat="52.1859201696" lon="-2.1098789200"><ele>37.15</ele><time>2015-11-25T12:28:03Z</time></trkpt><trkpt lat="52.1860215906" lon="-2.1099261101"><ele>37.15</ele><time>2015-11-25T12:28:13Z</time></trkpt><trkpt lat="52.1862369217" lon="-2.1100531798"><ele>38.59</ele><time>2015-11-25T12:28:33Z</time></trkpt><trkpt lat="52.1863086708" lon="-2.1101061534"><ele>39.07</ele><time>2015-11-25T12:28:39Z</time></trkpt><trkpt lat="52.1864158753" lon="-2.1102528367"><ele>39.55</ele><time>2015-11-25T12:28:48Z</time></trkpt><trkpt lat="52.1865801606" lon="-2.1103884559"><ele>39.55</ele><time>2015-11-25T12:29:02Z</time></trkpt><trkpt lat="52.1867341362" lon="-2.1104514878"><ele>40.03</ele><time>2015-11-25T12:29:15Z</time></trkpt><trkpt lat="52.1869788039" lon="-2.1105430182"><ele>41.47</ele><time>2015-11-25T12:29:35Z</time></trkpt><trkpt lat="52.1870337892" lon="-2.1105871908"><ele>41.95</ele><time>2015-11-25T12:29:41Z</time></trkpt><trkpt lat="52.1872306801" lon="-2.1107632108"><ele>43.40</ele><time>2015-11-25T12:30:00Z</time></trkpt><trkpt lat="52.1875040140" lon="-2.1109719202"><ele>43.88</ele><time>2015-11-25T12:30:18Z</time></trkpt><trkpt lat="52.1877139807" lon="-2.1111456770"><ele>46.28</ele><time>2015-11-25T12:30:37Z</time></trkpt><trkpt lat="52.1877168305" lon="-2.1111755166"><ele>46.28</ele><time>2015-11-25T12:30:39Z</time></trkpt><trkpt lat="52.1876256354" lon="-2.1115253773"><ele>45.32</ele><time>2015-11-25T12:30:57Z</time></trkpt><trkpt lat="52.1876403037" lon="-2.1115661971"><ele>45.80</ele><time>2015-11-25T12:31:11Z</time></trkpt><trkpt lat="52.1876454167" lon="-2.1115742438"><ele>45.80</ele><time>2015-11-25T12:31:25Z</time></trkpt></trkseg></trk></gpx>